Time;durP1;ratioP1;P1;durP2;ratioP2;P2;SDS_P1;SDS_P2;PMS_P1;PMS_P2;Temp;Humidity;BMP_temperature;BMP_pressure;BME280_temperature;BME280_humidity;BME280_pressure;Samples;Min_cycle;Max_cycle;Signal;HPM_P1;HPM_P2
2023/11/19 00:02:15;;;;;;;;;;;;;;;;;;5017138;28;19964;-72
2023/11/19 00:04:42;;;;;;;;;;;;;;;;;;5029976;28;19925;-72
2023/11/19 00:07:10;;;;;;;;;;;;;;;;;;5028649;28;19925;-71
2023/11/19 00:09:37;;;;;;;;;;;;;;;;;;5029860;28;19925;-72
2023/11/19 00:12:04;;;;;;;;;;;;;;;;;;5025988;28;20416;-72
2023/11/19 00:14:31;;;;;;;;;;;;;;;;;;5028366;28;19988;-73
2023/11/19 00:16:58;;;;;;;;;;;;;;;;;;5030768;28;19929;-72
2023/11/19 00:19:26;;;;;;;;;;;;;;;;;;5029951;28;20352;-72
2023/11/19 00:21:53;;;;;;;;;;;;;;;;;;5028116;28;19929;-72
2023/11/19 00:24:20;;;;;;;;;;;;;;;;;;5031454;28;19931;-72
2023/11/19 00:26:47;;;;;;;;;;;;;;;;;;5029898;28;19944;-72
2023/11/19 00:29:14;;;;;;;;;;;;;;;;;;5025304;28;19932;-71
2023/11/19 00:31:41;;;;;;;;;;;;;;;;;;5029618;28;19932;-72
2023/11/19 00:34:08;;;;;;;;;;;;;;;;;;5026382;28;20031;-72
2023/11/19 00:36:35;;;;;;;;;;;;;;;;;;5027871;28;20012;-72
2023/11/19 00:39:02;;;;;;;;;;;;;;;;;;5030665;28;20092;-72
2023/11/19 00:41:29;;;;;;;;;;;;;;;;;;5028786;28;20012;-72
2023/11/19 00:43:56;;;;;;;;;;;;;;;;;;5026354;28;20371;-72
2023/11/19 00:46:23;;;;;;;;;;;;;;;;;;5018789;28;20447;-73
2023/11/19 00:48:50;;;;;;;;;;;;;;;;;;5014119;28;20408;-73
2023/11/19 00:51:17;;;;;;;;;;;;;;;;;;5019260;28;20027;-73
2023/11/19 00:53:44;;;;;;;;;;;;;;;;;;5031710;28;20008;-72
2023/11/19 00:56:12;;;;;;;;;;;;;;;;;;5029066;28;19976;-73
2023/11/19 00:58:39;;;;;;;;;;;;;;;;;;5017229;28;19925;-72
2023/11/19 01:01:06;;;;;;;;;;;;;;;;;;5028022;28;19933;-73
2023/11/19 01:03:33;;;;;;;;;;;;;;;;;;5030386;28;20335;-72
2023/11/19 01:06:02;;;;;;;;;;;;;;;;;;5023755;28;20012;-72
2023/11/19 01:08:29;;;;;;;;;;;;;;;;;;5021023;28;19985;-72
2023/11/19 01:10:56;;;;;;;;;;;;;;;;;;5034299;28;19926;-73
2023/11/19 01:13:24;;;;;;;;;;;;;;;;;;5032217;28;19949;-73
2023/11/19 01:15:51;;;;;;;;;;;;;;;;;;5032438;28;19976;-73
2023/11/19 01:18:18;;;;;;;;;;;;;;;;;;5031438;28;19931;-73
2023/11/19 01:20:45;;;;;;;;;;;;;;;;;;5032878;28;20015;-73
2023/11/19 01:23:12;;;;;;;;;;;;;;;;;;5031455;28;19931;-72
2023/11/19 01:25:39;;;;;;;;;;;;;;;;;;5032834;28;20012;-73
2023/11/19 01:28:06;;;;;;;;;;;;;;;;;;5028220;28;21061;-73
2023/11/19 01:30:33;;;;;;;;;;;;;;;;;;5021867;28;19940;-72
2023/11/19 01:33:00;;;;;;;;;;;;;;;;;;5024601;28;20004;-73
2023/11/19 01:35:27;;;;;;;;;;;;;;;;;;5028289;28;19932;-73
2023/11/19 01:37:54;;;;;;;;;;;;;;;;;;5031174;28;19936;-73
2023/11/19 01:40:21;;;;;;;;;;;;;;;;;;5030414;28;19971;-78
2023/11/19 01:42:49;;;;;;;;;;;;;;;;;;5030070;28;19933;-78
2023/11/19 01:45:16;;;;;;;;;;;;;;;;;;5034128;28;20375;-78
2023/11/19 01:47:43;;;;;;;;;;;;;;;;;;5033898;28;19964;-79
2023/11/19 01:50:10;;;;;;;;;;;;;;;;;;5034056;28;19969;-78
2023/11/19 01:52:37;;;;;;;;;;;;;;;;;;5034003;28;19932;-79
2023/11/19 01:55:04;;;;;;;;;;;;;;;;;;5034907;28;19944;-79
2023/11/19 01:57:31;;;;;;;;;;;;;;;;;;5034333;28;19971;-79
2023/11/19 01:59:58;;;;;;;;;;;;;;;;;;5034609;28;20023;-78
2023/11/19 02:02:26;;;;;;;;;;;;;;;;;;5034543;28;20016;-79
2023/11/19 02:04:53;;;;;;;;;;;;;;;;;;5034566;28;19925;-79
2023/11/19 02:07:20;;;;;;;;;;;;;;;;;;5035189;28;19925;-80
2023/11/19 02:09:47;;;;;;;;;;;;;;;;;;5035779;28;19932;-80
2023/11/19 02:12:15;;;;;;;;;;;;;;;;;;5033975;28;20450;-78
2023/11/19 02:14:42;;;;;;;;;;;;;;;;;;5033238;28;19932;-78
2023/11/19 02:17:09;;;;;;;;;;;;;;;;;;5034590;28;20012;-77
2023/11/19 02:19:36;;;;;;;;;;;;;;;;;;5033448;28;19947;-77
2023/11/19 02:22:03;;;;;;;;;;;;;;;;;;5033684;28;19963;-78
2023/11/19 02:24:29;;;;;;;;;;;;;;;;;;5034026;28;20012;-77
2023/11/19 02:26:58;;;;;;;;;;;;;;;;;;5028911;28;19925;-77
2023/11/19 02:29:25;;;;;;;;;;;;;;;;;;5026343;28;19925;-76
2023/11/19 02:31:52;;;;;;;;;;;;;;;;;;5030199;28;19929;-76
2023/11/19 02:34:19;;;;;;;;;;;;;;;;;;5030183;28;20387;-77
2023/11/19 02:36:47;;;;;;;;;;;;;;;;;;5029170;28;20008;-76
2023/11/19 02:39:14;;;;;;;;;;;;;;;;;;5029652;28;19943;-77
2023/11/19 02:41:41;;;;;;;;;;;;;;;;;;5031938;28;19926;-76
2023/11/19 02:44:08;;;;;;;;;;;;;;;;;;5031443;28;20020;-75
2023/11/19 02:46:35;;;;;;;;;;;;;;;;;;5030399;28;20016;-77
2023/11/19 02:49:02;;;;;;;;;;;;;;;;;;5020416;28;19979;-77
2023/11/19 02:51:30;;;;;;;;;;;;;;;;;;5021380;28;19925;-78
2023/11/19 02:53:58;;;;;;;;;;;;;;;;;;5028958;28;19931;-79
2023/11/19 02:56:26;;;;;;;;;;;;;;;;;;5024097;28;19976;-80
2023/11/19 02:58:53;;;;;;;;;;;;;;;;;;5025997;28;19926;-80
2023/11/19 03:01:23;;;;;;;;;;;;;;;;;;5028784;28;20467;-79
2023/11/19 03:03:54;;;;;;;;;;;;;;;;;;5032537;28;20013;-80
2023/11/19 03:06:21;;;;;;;;;;;;;;;;;;5031725;28;19933;-81
2023/11/19 03:08:48;;;;;;;;;;;;;;;;;;5031886;28;19925;-81
2023/11/19 03:11:15;;;;;;;;;;;;;;;;;;5030500;28;20402;-80
2023/11/19 03:13:42;;;;;;;;;;;;;;;;;;5022438;28;20578;-81
2023/11/19 03:16:11;;;;;;;;;;;;;;;;;;5032376;28;20028;-81
2023/11/19 03:18:39;;;;;;;;;;;;;;;;;;5030129;28;19971;-79
2023/11/19 03:21:06;;;;;;;;;;;;;;;;;;5031226;28;20438;-80
2023/11/19 03:23:32;;;;;;;;;;;;;;;;;;5031690;28;19952;-80
2023/11/19 03:26:03;;;;;;;;;;;;;;;;;;5031556;28;20015;-80
2023/11/19 03:28:30;;;;;;;;;;;;;;;;;;5024677;28;19965;-79
2023/11/19 03:30:57;;;;;;;;;;;;;;;;;;5027752;28;19925;-79
2023/11/19 03:33:27;;;;;;;;;;;;;;;;;;5025165;28;19933;-79
2023/11/19 03:35:56;;;;;;;;;;;;;;;;;;5030387;28;19933;-79
2023/11/19 03:38:23;;;;;;;;;;;;;;;;;;5026890;28;19936;-80
2023/11/19 03:40:50;;;;;;;;;;;;;;;;;;5024704;28;19929;-79
2023/11/19 03:43:18;;;;;;;;;;;;;;;;;;5022465;28;20021;-78
2023/11/19 03:45:46;;;;;;;;;;;;;;;;;;5025829;28;19930;-80
2023/11/19 03:48:13;;;;;;;;;;;;;;;;;;5030313;28;20016;-78
2023/11/19 03:50:40;;;;;;;;;;;;;;;;;;5039501;28;20387;-79
2023/11/19 03:53:07;;;;;;;;;;;;;;;;;;5034233;28;20325;-79
2023/11/19 03:55:34;;;;;;;;;;;;;;;;;;5032217;28;19952;-78
2023/11/19 03:58:00;;;;;;;;;;;;;;;;;;5029682;28;19957;-78
2023/11/19 04:00:27;;;;;;;;;;;;;;;;;;5030436;28;19925;-80
2023/11/19 04:02:56;;;;;;;;;;;;;;;;;;5031042;28;20201;-78
2023/11/19 04:05:23;;;;;;;;;;;;;;;;;;5018560;28;20024;-79
2023/11/19 04:07:50;;;;;;;;;;;;;;;;;;5032139;28;20021;-79
2023/11/19 04:10:18;;;;;;;;;;;;;;;;;;5031985;28;19925;-79
2023/11/19 04:12:45;;;;;;;;;;;;;;;;;;5031592;28;19933;-77
2023/11/19 04:15:12;;;;;;;;;;;;;;;;;;5031088;28;19925;-79
2023/11/19 04:17:39;;;;;;;;;;;;;;;;;;5020216;28;20037;-78
2023/11/19 04:20:10;;;;;;;;;;;;;;;;;;5026059;28;20407;-79
2023/11/19 04:22:37;;;;;;;;;;;;;;;;;;5031596;28;19948;-79
2023/11/19 04:25:04;;;;;;;;;;;;;;;;;;5040267;28;19925;-80
2023/11/19 04:27:31;;;;;;;;;;;;;;;;;;5028378;28;19972;-80
2023/11/19 04:30:00;;;;;;;;;;;;;;;;;;5029288;28;19931;-78
2023/11/19 04:32:27;;;;;;;;;;;;;;;;;;5030399;28;19967;-79
2023/11/19 04:34:54;;;;;;;;;;;;;;;;;;5029216;28;20371;-78
2023/11/19 04:37:21;;;;;;;;;;;;;;;;;;5029136;28;19975;-78
2023/11/19 04:39:48;;;;;;;;;;;;;;;;;;5030503;28;20415;-80
2023/11/19 04:42:16;;;;;;;;;;;;;;;;;;5029314;28;20016;-82
2023/11/19 04:44:43;;;;;;;;;;;;;;;;;;5031017;28;19925;-78
2023/11/19 04:47:10;;;;;;;;;;;;;;;;;;5034231;28;20020;-79
2023/11/19 04:49:37;;;;;;;;;;;;;;;;;;5031707;28;19925;-80
2023/11/19 04:52:04;;;;;;;;;;;;;;;;;;5030136;28;19931;-79
2023/11/19 04:54:31;;;;;;;;;;;;;;;;;;5031653;28;19931;-79
2023/11/19 04:56:58;;;;;;;;;;;;;;;;;;5036250;28;19932;-78
2023/11/19 04:59:27;;;;;;;;;;;;;;;;;;5040393;28;20004;-78
2023/11/19 05:01:54;;;;;;;;;;;;;;;;;;5033834;28;19987;-78
2023/11/19 05:04:21;;;;;;;;;;;;;;;;;;5033157;28;19925;-81
2023/11/19 05:06:48;;;;;;;;;;;;;;;;;;5027196;28;20014;-78
2023/11/19 05:09:15;;;;;;;;;;;;;;;;;;5024327;28;20008;-78
2023/11/19 05:11:43;;;;;;;;;;;;;;;;;;5032626;28;19983;-77
2023/11/19 05:14:10;;;;;;;;;;;;;;;;;;5031955;28;20292;-78
2023/11/19 05:16:37;;;;;;;;;;;;;;;;;;5032605;28;20376;-79
2023/11/19 05:19:04;;;;;;;;;;;;;;;;;;5030597;28;20043;-80
2023/11/19 05:21:31;;;;;;;;;;;;;;;;;;5034621;28;20024;-80
2023/11/19 05:23:58;;;;;;;;;;;;;;;;;;5033205;28;19933;-79
2023/11/19 05:26:25;;;;;;;;;;;;;;;;;;5035230;28;20373;-79
2023/11/19 05:28:52;;;;;;;;;;;;;;;;;;5034572;28;19988;-78
2023/11/19 05:31:19;;;;;;;;;;;;;;;;;;5031418;28;19925;-79
2023/11/19 05:33:46;;;;;;;;;;;;;;;;;;5042942;28;20343;-79
2023/11/19 05:36:13;;;;;;;;;;;;;;;;;;5033757;28;20362;-79
2023/11/19 05:38:40;;;;;;;;;;;;;;;;;;5031373;28;19925;-77
2023/11/19 05:41:07;;;;;;;;;;;;;;;;;;5031483;28;19929;-78
2023/11/19 05:43:34;;;;;;;;;;;;;;;;;;5027807;28;20042;-81
2023/11/19 05:46:01;;;;;;;;;;;;;;;;;;5033742;28;20004;-79
2023/11/19 05:48:28;;;;;;;;;;;;;;;;;;5033910;28;19948;-78
2023/11/19 05:50:55;;;;;;;;;;;;;;;;;;5014912;28;19925;-78
2023/11/19 05:53:22;;;;;;;;;;;;;;;;;;5033483;28;19925;-78
2023/11/19 05:55:54;;;;;;;;;;;;;;;;;;5032454;28;20032;-80
2023/11/19 05:58:21;;;;;;;;;;;;;;;;;;5033715;28;20411;-83
2023/11/19 06:00:50;;;;;;;;;;;;;;;;;;5035691;28;20416;-83
2023/11/19 06:03:17;;;;;;;;;;;;;;;;;;5029098;28;19925;-82
2023/11/19 06:05:44;;;;;;;;;;;;;;;;;;5035683;28;19972;-83
2023/11/19 06:08:12;;;;;;;;;;;;;;;;;;5034467;28;20020;-82
2023/11/19 06:10:39;;;;;;;;;;;;;;;;;;5033929;28;20284;-80
2023/11/19 06:13:06;;;;;;;;;;;;;;;;;;5033016;28;20285;-79
2023/11/19 06:15:33;;;;;;;;;;;;;;;;;;5026489;28;19925;-81
2023/11/19 06:18:01;;;;;;;;;;;;;;;;;;5030915;28;19925;-82
2023/11/19 06:20:29;;;;;;;;;;;;;;;;;;5033238;28;20371;-81
2023/11/19 06:22:56;;;;;;;;;;;;;;;;;;5032367;28;19925;-81
2023/11/19 06:25:23;;;;;;;;;;;;;;;;;;5032774;28;20289;-81
2023/11/19 06:27:50;;;;;;;;;;;;;;;;;;5032472;28;19925;-82
2023/11/19 06:30:17;;;;;;;;;;;;;;;;;;5028545;28;19968;-81
2023/11/19 06:32:44;;;;;;;;;;;;;;;;;;5029127;28;20004;-80
2023/11/19 06:35:11;;;;;;;;;;;;;;;;;;5033669;28;20047;-81
2023/11/19 06:37:38;;;;;;;;;;;;;;;;;;5031390;28;19925;-82
2023/11/19 06:40:06;;;;;;;;;;;;;;;;;;5033379;28;20013;-81
2023/11/19 06:42:33;;;;;;;;;;;;;;;;;;5019503;28;19967;-81
2023/11/19 06:45:00;;;;;;;;;;;;;;;;;;5030273;28;19933;-78
2023/11/19 06:47:27;;;;;;;;;;;;;;;;;;5029196;28;20381;-82
2023/11/19 06:49:54;;;;;;;;;;;;;;;;;;5030148;28;19975;-81
2023/11/19 06:52:21;;;;;;;;;;;;;;;;;;5030178;28;20009;-80
2023/11/19 06:54:48;;;;;;;;;;;;;;;;;;5030105;28;19926;-79
2023/11/19 06:57:15;;;;;;;;;;;;;;;;;;5035277;28;20027;-80
2023/11/19 06:59:42;;;;;;;;;;;;;;;;;;5031666;28;20024;-79
2023/11/19 07:02:09;;;;;;;;;;;;;;;;;;5028603;28;19931;-79
2023/11/19 07:04:36;;;;;;;;;;;;;;;;;;5031587;28;19925;-82
2023/11/19 07:07:03;;;;;;;;;;;;;;;;;;5031330;28;19968;-79
2023/11/19 07:09:32;;;;;;;;;;;;;;;;;;5030416;28;19929;-81
2023/11/19 07:12:01;;;;;;;;;;;;;;;;;;5031536;28;19929;-80
2023/11/19 07:14:28;;;;;;;;;;;;;;;;;;5033275;28;19925;-82
2023/11/19 07:16:55;;;;;;;;;;;;;;;;;;5032103;28;20020;-82
2023/11/19 07:19:22;;;;;;;;;;;;;;;;;;5026845;28;19939;-82
2023/11/19 07:21:49;;;;;;;;;;;;;;;;;;5025956;28;20388;-81
2023/11/19 07:24:16;;;;;;;;;;;;;;;;;;5018844;28;20542;-82
2023/11/19 07:26:44;;;;;;;;;;;;;;;;;;5029465;28;19960;-79
2023/11/19 07:29:11;;;;;;;;;;;;;;;;;;5029990;28;20008;-78
2023/11/19 07:31:38;;;;;;;;;;;;;;;;;;5030152;28;20015;-79
2023/11/19 07:34:06;;;;;;;;;;;;;;;;;;5029324;28;20399;-79
2023/11/19 07:36:33;;;;;;;;;;;;;;;;;;5030021;28;20399;-79
2023/11/19 07:39:00;;;;;;;;;;;;;;;;;;5025921;28;19964;-79
2023/11/19 07:41:27;;;;;;;;;;;;;;;;;;5029091;28;20018;-79
2023/11/19 07:43:54;;;;;;;;;;;;;;;;;;5030257;28;19925;-78
2023/11/19 07:46:21;;;;;;;;;;;;;;;;;;5027657;28;20078;-79
2023/11/19 07:48:48;;;;;;;;;;;;;;;;;;5031226;28;20008;-78
2023/11/19 07:51:15;;;;;;;;;;;;;;;;;;5024931;28;20011;-79
2023/11/19 07:53:42;;;;;;;;;;;;;;;;;;5030925;28;20370;-79
2023/11/19 07:56:09;;;;;;;;;;;;;;;;;;5030497;28;19926;-78
2023/11/19 07:58:37;;;;;;;;;;;;;;;;;;5022542;28;19958;-80
2023/11/19 08:01:04;;;;;;;;;;;;;;;;;;5020964;28;19940;-81
2023/11/19 08:03:34;;;;;;;;;;;;;;;;;;5031903;28;19925;-82
2023/11/19 08:06:01;;;;;;;;;;;;;;;;;;5041790;28;20378;-81
2023/11/19 08:08:29;;;;;;;;;;;;;;;;;;5037814;28;19925;-83
2023/11/19 08:10:56;;;;;;;;;;;;;;;;;;5032643;28;19925;-80
2023/11/19 08:13:23;;;;;;;;;;;;;;;;;;5038850;28;19925;-80
2023/11/19 08:15:50;;;;;;;;;;;;;;;;;;5026761;28;19932;-78
2023/11/19 08:18:18;;;;;;;;;;;;;;;;;;5022273;28;19929;-78
2023/11/19 08:20:45;;;;;;;;;;;;;;;;;;5022563;28;19943;-79
2023/11/19 08:23:13;;;;;;;;;;;;;;;;;;5021140;28;19940;-78
2023/11/19 08:25:39;;;;;;;;;;;;;;;;;;5025279;28;20944;-79
2023/11/19 08:28:07;;;;;;;;;;;;;;;;;;5019418;28;20430;-82
2023/11/19 08:30:33;;;;;;;;;;;;;;;;;;5022609;28;19929;-80
2023/11/19 08:33:02;;;;;;;;;;;;;;;;;;5025306;28;20403;-80
2023/11/19 08:35:29;;;;;;;;;;;;;;;;;;5023530;28;19932;-79
2023/11/19 08:37:57;;;;;;;;;;;;;;;;;;5019488;28;19933;-80
2023/11/19 08:40:25;;;;;;;;;;;;;;;;;;5023483;28;20068;-80
2023/11/19 08:42:52;;;;;;;;;;;;;;;;;;5025099;28;19929;-82
2023/11/19 08:45:19;;;;;;;;;;;;;;;;;;5024182;28;19929;-82
2023/11/19 08:47:46;;;;;;;;;;;;;;;;;;5031596;28;19925;-78
2023/11/19 08:50:13;;;;;;;;;;;;;;;;;;5028608;28;19956;-83
2023/11/19 08:52:40;;;;;;;;;;;;;;;;;;5029643;28;20443;-76
2023/11/19 08:55:07;;;;;;;;;;;;;;;;;;5036364;28;19964;-74
2023/11/19 08:57:34;;;;;;;;;;;;;;;;;;5027687;28;19925;-75
2023/11/19 09:00:00;;;;;;;;;;;;;;;;;;5030235;28;19925;-75
2023/11/19 09:02:27;;;;;;;;;;;;;;;;;;5024493;28;20027;-71
2023/11/19 09:04:54;;;;;;;;;;;;;;;;;;5033119;28;20083;-75
2023/11/19 09:07:22;;;;;;;;;;;;;;;;;;5032665;28;19932;-69
2023/11/19 09:09:49;;;;;;;;;;;;;;;;;;5037148;28;19932;-69
2023/11/19 09:12:16;;;;;;;;;;;;;;;;;;5022757;28;20012;-70
2023/11/19 09:14:43;;;;;;;;;;;;;;;;;;5029356;28;19925;-69
2023/11/19 09:17:10;;;;;;;;;;;;;;;;;;5015280;28;19925;-69
2023/11/19 09:19:37;;;;;;;;;;;;;;;;;;5017399;28;19936;-70
2023/11/19 09:22:04;;;;;;;;;;;;;;;;;;5023144;28;20012;-70
2023/11/19 09:24:31;;;;;;;;;;;;;;;;;;5030692;28;19947;-70
2023/11/19 09:26:58;;;;;;;;;;;;;;;;;;5031588;28;19925;-70
2023/11/19 09:29:25;;;;;;;;;;;;;;;;;;5031704;28;20008;-70
2023/11/19 09:31:52;;;;;;;;;;;;;;;;;;5034416;28;20012;-69
2023/11/19 09:34:19;;;;;;;;;;;;;;;;;;5051305;28;19925;-69
2023/11/19 09:36:46;;;;;;;;;;;;;;;;;;5034769;28;19932;-70
2023/11/19 09:39:14;;;;;;;;;;;;;;;;;;5043999;28;20102;-69
2023/11/19 09:41:41;;;;;;;;;;;;;;;;;;5041741;28;19933;-69
2023/11/19 09:44:08;;;;;;;;;;;;;;;;;;5024690;28;19937;-69
2023/11/19 09:46:35;;;;;;;;;;;;;;;;;;5035368;28;19972;-68
2023/11/19 09:49:03;;;;;;;;;;;;;;;;;;5034949;28;19925;-69
2023/11/19 09:51:30;;;;;;;;;;;;;;;;;;5026591;28;19926;-69
2023/11/19 09:53:57;;;;;;;;;;;;;;;;;;5032528;28;20024;-68
2023/11/19 09:56:24;;;;;;;;;;;;;;;;;;5037081;28;19931;-70
2023/11/19 09:58:51;;;;;;;;;;;;;;;;;;5032646;28;20011;-69
2023/11/19 10:01:18;;;;;;;;;;;;;;;;;;5049713;28;20012;-68
2023/11/19 10:03:45;;;;;;;;;;;;;;;;;;5033479;28;20023;-70
2023/11/19 10:06:12;;;;;;;;;;;;;;;;;;5035155;28;20372;-70
2023/11/19 10:08:40;;;;;;;;;;;;;;;;;;5035755;28;20364;-68
2023/11/19 10:11:07;;;;;;;;;;;;;;;;;;5028444;28;19926;-68
2023/11/19 10:13:34;;;;;;;;;;;;;;;;;;5020996;28;20023;-69
2023/11/19 10:16:01;;;;;;;;;;;;;;;;;;5022084;28;19925;-70
2023/11/19 10:18:28;;;;;;;;;;;;;;;;;;5021112;28;19939;-70
2023/11/19 10:20:55;;;;;;;;;;;;;;;;;;5023800;28;20036;-68
2023/11/19 10:23:22;;;;;;;;;;;;;;;;;;5019276;28;19925;-69
2023/11/19 10:25:52;;;;;;;;;;;;;;;;;;5018712;28;19932;-68
2023/11/19 10:28:19;;;;;;;;;;;;;;;;;;5013084;28;19925;-69
2023/11/19 10:30:46;;;;;;;;;;;;;;;;;;5023638;28;19933;-69
2023/11/19 10:33:17;;;;;;;;;;;;;;;;;;5018472;28;20024;-69
2023/11/19 10:35:44;;;;;;;;;;;;;;;;;;5014560;28;19929;-69
2023/11/19 10:38:10;;;;;;;;;;;;;;;;;;5015300;28;20048;-69
2023/11/19 10:40:37;;;;;;;;;;;;;;;;;;5026204;28;20434;-69
2023/11/19 10:43:04;;;;;;;;;;;;;;;;;;5018624;28;20053;-69
2023/11/19 10:45:33;;;;;;;;;;;;;;;;;;5017374;28;20022;-70
2023/11/19 10:48:00;;;;;;;;;;;;;;;;;;5021528;28;19933;-68
2023/11/19 10:50:27;;;;;;;;;;;;;;;;;;5023671;28;19976;-68
2023/11/19 10:52:54;;;;;;;;;;;;;;;;;;5016088;28;20023;-68
2023/11/19 10:55:21;;;;;;;;;;;;;;;;;;5018959;28;20386;-68
2023/11/19 10:57:48;;;;;;;;;;;;;;;;;;5012910;28;20024;-69
2023/11/19 11:00:15;;;;;;;;;;;;;;;;;;5018561;28;19971;-69
2023/11/19 11:02:42;;;;;;;;;;;;;;;;;;5021466;28;19936;-69
2023/11/19 11:05:10;;;;;;;;;;;;;;;;;;5022646;28;19925;-69
2023/11/19 11:07:37;;;;;;;;;;;;;;;;;;5014379;28;19975;-69
2023/11/19 11:10:06;;;;;;;;;;;;;;;;;;5016576;28;20010;-69
2023/11/19 11:12:34;;;;;;;;;;;;;;;;;;5011963;28;20722;-70
2023/11/19 11:15:02;;;;;;;;;;;;;;;;;;5011797;28;19932;-70
2023/11/19 11:17:29;;;;;;;;;;;;;;;;;;5011086;28;20029;-70
2023/11/19 11:19:56;;;;;;;;;;;;;;;;;;5009844;28;20308;-69
2023/11/19 11:22:24;;;;;;;;;;;;;;;;;;5006426;28;20039;-67
2023/11/19 11:24:51;;;;;;;;;;;;;;;;;;5004973;28;19928;-70
2023/11/19 11:27:18;;;;;;;;;;;;;;;;;;5011981;28;20384;-69
2023/11/19 11:29:45;;;;;;;;;;;;;;;;;;5010649;28;20395;-70
2023/11/19 11:32:13;;;;;;;;;;;;;;;;;;5011157;28;20036;-69
2023/11/19 11:34:40;;;;;;;;;;;;;;;;;;5011542;28;19937;-69
2023/11/19 11:37:07;;;;;;;;;;;;;;;;;;5010821;28;19933;-70
2023/11/19 11:39:34;;;;;;;;;;;;;;;;;;5009120;28;19957;-70
2023/11/19 11:42:01;;;;;;;;;;;;;;;;;;5009831;28;20401;-69
2023/11/19 11:44:28;;;;;;;;;;;;;;;;;;5009957;28;19940;-70
2023/11/19 11:46:55;;;;;;;;;;;;;;;;;;5007786;28;19929;-70
2023/11/19 11:49:22;;;;;;;;;;;;;;;;;;5011093;28;19933;-70
2023/11/19 11:51:49;;;;;;;;;;;;;;;;;;5009842;28;19976;-69
2023/11/19 11:54:16;;;;;;;;;;;;;;;;;;5007027;28;20863;-69
2023/11/19 11:56:43;;;;;;;;;;;;;;;;;;5009918;28;19933;-69
2023/11/19 11:59:10;;;;;;;;;;;;;;;;;;5005728;28;19937;-70
2023/11/19 12:01:37;;;;;;;;;;;;;;;;;;5010724;28;19933;-69
2023/11/19 12:04:04;;;;;;;;;;;;;;;;;;5012401;28;19933;-69
2023/11/19 12:06:31;;;;;;;;;;;;;;;;;;5016922;28;20017;-69
2023/11/19 12:08:58;;;;;;;;;;;;;;;;;;5009379;28;20024;-67
2023/11/19 12:11:27;;;;;;;;;;;;;;;;;;5014155;28;20600;-69
2023/11/19 12:13:55;;;;;;;;;;;;;;;;;;5020280;28;20028;-68
2023/11/19 12:16:22;;;;;;;;;;;;;;;;;;5029971;28;19933;-70
2023/11/19 12:18:49;;;;;;;;;;;;;;;;;;5022016;28;19925;-69
2023/11/19 12:21:16;;;;;;;;;;;;;;;;;;5024188;28;19929;-68
2023/11/19 12:23:43;;;;;;;;;;;;;;;;;;5014652;28;20420;-68
2023/11/19 12:26:10;;;;;;;;;;;;;;;;;;5014824;28;20459;-69
2023/11/19 12:28:39;;;;;;;;;;;;;;;;;;5017354;28;20303;-70
2023/11/19 12:31:06;;;;;;;;;;;;;;;;;;5014066;28;19933;-70
2023/11/19 12:33:33;;;;;;;;;;;;;;;;;;5021520;28;20335;-71
2023/11/19 12:36:05;;;;;;;;;;;;;;;;;;5014681;28;19935;-70
2023/11/19 12:38:32;;;;;;;;;;;;;;;;;;5017547;28;19933;-71
2023/11/19 12:40:59;;;;;;;;;;;;;;;;;;5020608;28;19932;-69
2023/11/19 12:43:26;;;;;;;;;;;;;;;;;;5017386;28;19939;-71
2023/11/19 12:45:54;;;;;;;;;;;;;;;;;;5006304;22;20024;-72
2023/11/19 12:48:23;;;;;;;;;;;;;;;;;;4991670;28;20951;-70
2023/11/19 12:50:50;;;;;;;;;;;;;;;;;;4994430;28;19938;-70
2023/11/19 12:53:17;;;;;;;;;;;;;;;;;;4994713;28;20720;-71
2023/11/19 12:55:50;;;;;;;;;;;;;;;;;;4993631;28;20380;-74
2023/11/19 12:58:17;;;;;;;;;;;;;;;;;;4989512;28;19934;-74
2023/11/19 13:00:44;;;;;;;;;;;;;;;;;;4993740;28;19933;-73
2023/11/19 13:03:11;;;;;;;;;;;;;;;;;;4989432;28;20008;-73
2023/11/19 13:05:38;;;;;;;;;;;;;;;;;;4997876;28;20012;-80
2023/11/19 13:08:05;;;;;;;;;;;;;;;;;;4992326;28;19980;-72
2023/11/19 13:10:33;;;;;;;;;;;;;;;;;;4991365;28;19933;-74
2023/11/19 13:13:00;;;;;;;;;;;;;;;;;;4996501;28;20018;-73
2023/11/19 13:15:28;;;;;;;;;;;;;;;;;;4999735;28;19944;-74
2023/11/19 13:17:55;;;;;;;;;;;;;;;;;;4999054;28;19925;-72
2023/11/19 13:20:22;;;;;;;;;;;;;;;;;;4999976;28;19934;-74
2023/11/19 13:22:49;;;;;;;;;;;;;;;;;;4994375;28;19939;-73
2023/11/19 13:25:16;;;;;;;;;;;;;;;;;;5006368;28;19925;-73
2023/11/19 13:27:43;;;;;;;;;;;;;;;;;;5007323;28;19934;-72
2023/11/19 13:30:10;;;;;;;;;;;;;;;;;;5010457;28;19925;-73
2023/11/19 13:32:40;;;;;;;;;;;;;;;;;;5020583;28;20015;-73
2023/11/19 13:35:08;;;;;;;;;;;;;;;;;;5018774;28;19997;-73
2023/11/19 13:37:35;;;;;;;;;;;;;;;;;;5016551;28;20031;-73
2023/11/19 13:40:03;;;;;;;;;;;;;;;;;;5010415;28;19925;-73
2023/11/19 13:42:30;;;;;;;;;;;;;;;;;;5002598;28;20407;-72
2023/11/19 13:44:57;;;;;;;;;;;;;;;;;;5007937;28;19992;-72
2023/11/19 13:47:24;;;;;;;;;;;;;;;;;;5014169;28;19933;-71
2023/11/19 13:49:52;;;;;;;;;;;;;;;;;;5012563;28;20027;-72
2023/11/19 13:52:19;;;;;;;;;;;;;;;;;;5009239;28;19940;-71
2023/11/19 13:54:52;;;;;;;;;;;;;;;;;;5006757;28;19932;-73
2023/11/19 13:57:19;;;;;;;;;;;;;;;;;;5009037;28;19948;-73
2023/11/19 13:59:46;;;;;;;;;;;;;;;;;;5008164;28;19933;-74
2023/11/19 14:02:13;;;;;;;;;;;;;;;;;;5009310;28;20028;-71
2023/11/19 14:04:41;;;;;;;;;;;;;;;;;;5006762;28;20378;-71
2023/11/19 14:07:08;;;;;;;;;;;;;;;;;;5007168;28;19926;-72
2023/11/19 14:09:35;;;;;;;;;;;;;;;;;;5012377;28;19948;-71
2023/11/19 14:12:02;;;;;;;;;;;;;;;;;;5001150;28;20033;-71
2023/11/19 14:14:29;;;;;;;;;;;;;;;;;;5009251;28;19948;-71
2023/11/19 14:16:57;;;;;;;;;;;;;;;;;;4999713;28;20013;-73
2023/11/19 14:19:24;;;;;;;;;;;;;;;;;;5001160;28;20401;-73
2023/11/19 14:21:51;;;;;;;;;;;;;;;;;;5005859;28;19925;-74
2023/11/19 14:24:19;;;;;;;;;;;;;;;;;;5010022;28;19933;-72
2023/11/19 14:26:49;;;;;;;;;;;;;;;;;;5009949;28;19932;-73
2023/11/19 14:29:17;;;;;;;;;;;;;;;;;;5005377;28;19979;-73
2023/11/19 14:31:44;;;;;;;;;;;;;;;;;;5004646;28;19926;-72
2023/11/19 14:34:11;;;;;;;;;;;;;;;;;;5008272;28;20066;-73
2023/11/19 14:36:38;;;;;;;;;;;;;;;;;;5014702;28;19967;-73
2023/11/19 14:39:07;;;;;;;;;;;;;;;;;;5001561;28;19926;-70
2023/11/19 14:41:34;;;;;;;;;;;;;;;;;;5010563;28;19980;-71
2023/11/19 14:44:02;;;;;;;;;;;;;;;;;;5003489;28;19933;-70
2023/11/19 14:46:32;;;;;;;;;;;;;;;;;;5013928;28;19925;-71
2023/11/19 14:49:00;;;;;;;;;;;;;;;;;;5009790;28;19979;-70
2023/11/19 14:51:27;;;;;;;;;;;;;;;;;;5012777;28;19925;-70
2023/11/19 14:53:54;;;;;;;;;;;;;;;;;;5010113;28;20310;-70
2023/11/19 14:56:21;;;;;;;;;;;;;;;;;;5009700;28;19968;-83
2023/11/19 14:58:50;;;;;;;;;;;;;;;;;;5007124;28;19929;-72
2023/11/19 15:01:17;;;;;;;;;;;;;;;;;;5002910;28;19925;-69
2023/11/19 15:03:44;;;;;;;;;;;;;;;;;;5008410;28;20406;-72
2023/11/19 15:06:12;;;;;;;;;;;;;;;;;;5006937;28;19940;-70
2023/11/19 15:08:39;;;;;;;;;;;;;;;;;;5006284;28;20444;-70
2023/11/19 15:11:06;;;;;;;;;;;;;;;;;;4997033;28;20062;-71
2023/11/19 15:13:33;;;;;;;;;;;;;;;;;;5007552;28;20025;-72
2023/11/19 15:16:01;;;;;;;;;;;;;;;;;;4999373;28;20134;-72
2023/11/19 15:18:27;;;;;;;;;;;;;;;;;;5004440;28;19926;-71
2023/11/19 15:20:55;;;;;;;;;;;;;;;;;;5008346;28;19944;-72
2023/11/19 15:23:22;;;;;;;;;;;;;;;;;;5011659;28;20411;-72
2023/11/19 15:25:50;;;;;;;;;;;;;;;;;;5011589;28;19926;-68
2023/11/19 15:28:17;;;;;;;;;;;;;;;;;;5018854;28;19925;-70
2023/11/19 15:30:44;;;;;;;;;;;;;;;;;;5008597;28;19992;-71
2023/11/19 15:33:12;;;;;;;;;;;;;;;;;;5009177;28;20027;-70
2023/11/19 15:35:40;;;;;;;;;;;;;;;;;;5008246;28;19996;-69
2023/11/19 15:38:10;;;;;;;;;;;;;;;;;;5007630;28;19925;-70
2023/11/19 15:40:38;;;;;;;;;;;;;;;;;;5009274;28;19925;-71
2023/11/19 15:43:06;;;;;;;;;;;;;;;;;;5013308;28;19925;-70
2023/11/19 15:45:37;;;;;;;;;;;;;;;;;;5005664;28;19992;-70
2023/11/19 15:48:04;;;;;;;;;;;;;;;;;;5004673;28;19972;-70
2023/11/19 15:50:32;;;;;;;;;;;;;;;;;;4997697;28;19933;-69
2023/11/19 15:53:01;;;;;;;;;;;;;;;;;;5011203;28;20300;-71
2023/11/19 15:55:28;;;;;;;;;;;;;;;;;;5015955;28;19933;-70
2023/11/19 15:57:56;;;;;;;;;;;;;;;;;;5012679;28;20669;-71
2023/11/19 16:00:23;;;;;;;;;;;;;;;;;;5013109;28;19925;-72
2023/11/19 16:02:50;;;;;;;;;;;;;;;;;;5012660;28;19961;-71
2023/11/19 16:05:17;;;;;;;;;;;;;;;;;;5005889;28;19925;-72
2023/11/19 16:07:45;;;;;;;;;;;;;;;;;;4998311;28;22283;-70
2023/11/19 16:10:12;;;;;;;;;;;;;;;;;;5005994;28;19980;-70
2023/11/19 16:12:40;;;;;;;;;;;;;;;;;;5001605;28;20309;-70
2023/11/19 16:15:08;;;;;;;;;;;;;;;;;;5007389;28;19976;-69
2023/11/19 16:17:35;;;;;;;;;;;;;;;;;;5005108;28;20403;-69
2023/11/19 16:20:03;;;;;;;;;;;;;;;;;;5012507;28;19932;-72
2023/11/19 16:22:30;;;;;;;;;;;;;;;;;;5002140;28;19926;-71
2023/11/19 16:24:57;;;;;;;;;;;;;;;;;;5001295;28;19937;-71
2023/11/19 16:27:26;;;;;;;;;;;;;;;;;;5004646;28;20036;-72
2023/11/19 16:29:53;;;;;;;;;;;;;;;;;;5005507;28;20401;-72
2023/11/19 16:32:24;;;;;;;;;;;;;;;;;;5007580;28;19928;-73
2023/11/19 16:34:53;;;;;;;;;;;;;;;;;;4997171;28;20005;-71
2023/11/19 16:37:22;;;;;;;;;;;;;;;;;;5003946;28;19964;-69
2023/11/19 16:39:49;;;;;;;;;;;;;;;;;;5003637;28;19933;-71
2023/11/19 16:42:20;;;;;;;;;;;;;;;;;;5002882;28;19933;-73
2023/11/19 16:44:47;;;;;;;;;;;;;;;;;;5009919;28;19925;-70
2023/11/19 16:47:14;;;;;;;;;;;;;;;;;;5013957;28;19925;-74